• Join FlightAware (Why Join?)
  • Login
  • US Flag 
09:23PM EST


 

Airport Tracker/Info


-or-


 

Live Flight TrackerFlight Track Log ✈ EJA614 ✈ 06-May-2013 ✈ KACY - KJWN

Flight Track Log - Related Links

Times and Time Zones

All times are in EDT time to prevent confusion due to time zone crossing. See the EJA614 flight status page for this flight to view local times or setup timezone preferences in your user account.

Time Position Orientation Groundspeed Altitude Reporting Facility
EDT Latitude Longitude Course Direction KTS MPH feet Rate Location/Type
07:37AM 39.4028 -74.5547 270° West 143 165 6,400  Level Washington Center
07:38AM 39.3722 -74.6467 247° West 176 203 8,600 2,280 Climbing Washington Center
07:39AM 39.3375 -74.7464 246° West 242 278 11,000 1,800 Climbing Washington Center
07:40AM 39.2967 -74.8594 245° Southwest 324 373 12,300 2,220 Climbing Washington Center
07:41AM 39.3139 -74.9825 280° West 339 390 15,500 2,160 Climbing Washington Center
07:42AM 39.6333 -75.4035 270° West  Level FlightAware Approximate
07:42AM 39.3792 -75.0894 308° West 323 372 16,600  Level Washington Center
07:43AM 39.4442 -75.2019 307° West 359 413 17,000 180 Climbing Washington Center
07:44AM 39.5089 -75.3117 307° West 377 434 17,000 600 Level Washington Center
07:45AM 39.5031 -75.4383 267° West 361 415 18,300 1,500 Climbing Washington Center
07:46AM 39.4428 -75.5567 237° Southwest 339 390 20,000 1,320 Climbing Washington Center
07:47AM 39.3822 -75.6775 237° Southwest 369 425 21,000 840 Climbing Washington Center
07:49AM 39.3067 -75.9456 250° West 398 458 22,600 960 Climbing Washington Center
07:50AM 39.2708 -76.0822 251° West 398 458 23,900 660 Climbing Washington Center
07:51AM 39.2431 -76.2456 258° West 411 473 24,000  Climbing Washington Center
07:52AM 39.2233 -76.3953 260° West 425 489 24,000 120 Level Washington Center
07:53AM 39.2100 -76.5264 263° West 409 471 24,300 840 Climbing Washington Center
07:54AM 39.1919 -76.6628 260° West 395 455 25,700 1,740 Climbing Washington Center
07:56AM 39.1568 -76.8756 258° West  Level FlightAware Approximate
07:57AM 39.1375 -77.0847 258° West 395 455 31,300  Level Washington Center
07:58AM 39.1211 -77.2208 261° West 395 455 33,300 1,200 Climbing Washington Center
08:00AM 39.0839 -77.5008 260° West 395 455 35,000 540 Climbing Washington Center
08:01AM 39.0625 -77.6472 259° West 410 472 35,000 240 Level Washington Center
08:02AM 39.0456 -77.7806 261° West 415 478 35,500 840 Climbing Washington Center
08:03AM 39.0242 -77.9294 260° West 423 487 36,800 1,200 Climbing Washington Center
08:04AM 39.0044 -78.0731 260° West 428 493 38,000 600 Climbing Washington Center
08:05AM 38.9850 -78.2061 259° West 407 468 38,000  Level Washington Center
08:06AM 38.9675 -78.3361 260° West 389 448 38,000  Level Washington Center
08:07AM 38.9500 -78.4636 260° West 377 434 38,000  Level Washington Center
08:08AM 38.9300 -78.5992 259° West 377 434 38,000  Level Washington Center
08:09AM 38.9100 -78.7317 259° West 377 434 38,000  Level Washington Center
08:10AM 38.8919 -78.8617 260° West 377 434 38,000  Level Washington Center
08:11AM 38.8656 -78.9883 255° West 377 434 38,000  Level Washington Center
08:12AM 38.8408 -79.1150 256° West 372 428 38,000  Level Washington Center
08:13AM 38.8144 -79.2364 254° West 372 428 38,000  Level Washington Center
08:14AM 38.7875 -79.3656 255° West 372 428 38,000  Level Washington Center
08:15AM 38.7578 -79.5106 255° West 377 434 38,000  Level Washington Center
08:16AM 38.7306 -79.6394 255° West 377 434 38,000  Level Washington Center
08:17AM 38.7058 -79.7553 255° West 377 434 38,000  Level Washington Center
08:18AM 38.6761 -79.8864 254° West 377 434 38,000  Level Washington Center
08:19AM 38.6486 -80.0125 254° West 377 434 38,000  Level Washington Center
08:21AM 38.6186 -80.1356 253° West  Level FlightAware Approximate
08:22AM 38.5669 -80.3694 253° West 367 422 38,000  Level Indianapolis Center
08:23AM 38.5367 -80.5097 255° West 371 427 38,000  Level Indianapolis Center
08:24AM 38.5083 -80.6356 254° West 369 425 38,000  Level Indianapolis Center
08:25AM 38.4797 -80.7625 254° West 370 426 38,000  Level Indianapolis Center
08:27AM 38.4214 -81.0142 254° West 369 425 38,000  Level Indianapolis Center
08:29AM 38.3836 -81.2756 260° West 377 434 38,000  Level Indianapolis Center
08:30AM 38.3803 -81.4131 268° West 384 442 38,000  Level Indianapolis Center
08:31AM 38.3581 -81.5431 258° West 374 430 38,000  Level Indianapolis Center
08:32AM 38.3250 -81.6658 251° West 365 420 38,000  Level Indianapolis Center
08:33AM 38.2933 -81.7914 252° West 369 425 38,000  Level Indianapolis Center
08:34AM 38.2611 -81.9156 252° West 369 425 38,000  Level Indianapolis Center
08:36AM 38.2072 -82.1096 251° West  Level FlightAware Approximate
08:37AM 38.1589 -82.3086 251° West 366 421 38,000  Level Indianapolis Center
08:38AM 38.1253 -82.4322 251° West 369 425 38,000  Level Indianapolis Center
08:39AM 38.0928 -82.5542 251° West 372 428 38,000  Level Indianapolis Center
08:41AM 38.0382 -82.7320 249° West  Level FlightAware Approximate
08:41AM 38.0208 -82.8269 249° West 378 435 38,000  Level Indianapolis Center
08:42AM 37.9861 -82.9514 251° West 376 433 38,000  Level Indianapolis Center
08:43AM 37.9525 -83.0786 252° West 379 436 38,000  Level Indianapolis Center
08:44AM 37.9189 -83.2042 251° West 379 436 38,000 -600 Level Indianapolis Center
08:46AM 37.8728 -83.3687 251° West  Level FlightAware Approximate
08:46AM 37.8294 -83.4569 251° West 397 457 36,300  Level Indianapolis Center
08:48AM 37.7885 -83.6169 252° West  Level FlightAware Approximate
08:48AM 37.6881 -83.7200 252° West 416 479 34,000  Level Indianapolis Center
08:50AM 37.5902 -83.8259 221° Southwest  Level FlightAware Approximate
08:51AM 37.5097 -84.0467 237° Southwest 375 432 34,000  Level Indianapolis Center
08:52AM 37.4494 -84.1572 236° Southwest 383 441 34,000 -480 Level Indianapolis Center
08:54AM 37.3793 -84.2773 234° Southwest  Level FlightAware Approximate
08:54AM 37.3119 -84.4053 234° Southwest 403 464 32,600  Level Indianapolis Center
08:55AM 37.2428 -84.5286 235° Southwest 426 490 31,400 -1,320 Descending Indianapolis Center
08:56AM 37.1742 -84.6539 236° Southwest 436 502 30,000 -1,320 Descending Indianapolis Center
08:57AM 37.2038 -84.5534 237° Southwest  Level FlightAware Approximate
08:57AM 37.1039 -84.7778 235° Southwest 436 502 28,800  Level Indianapolis Center
08:58AM 37.0281 -84.9125 235° Southwest 433 498 27,400 -1,380 Descending Indianapolis Center
09:00AM 36.9589 -85.0369 235° Southwest 435 501 26,000 -1,380 Descending Indianapolis Center
09:01AM 36.8467 -85.2289 234° Southwest 439 505 23,900 -1,320 Descending Memphis Center
09:02AM 36.8175 -85.2836 236° Southwest 440 506 23,400 -1,200 Descending Indianapolis Center
09:03AM 36.7497 -85.4053 235° Southwest 432 497 22,100 -960 Descending Indianapolis Center
09:03AM 36.7150 -85.4781 239° Southwest 444 511 22,000 -1,560 Descending Memphis Center
09:05AM 36.6311 -85.6542 239° Southwest 420 483 18,900 -2,460 Descending Indianapolis Center
09:06AM 36.5689 -85.7831 239° Southwest 366 421 15,700 -2,700 Descending Indianapolis Center
09:07AM 36.5283 -85.8717 240° Southwest 330 380 13,400 4,500 Descending Indianapolis Center
09:07AM 36.5164 -85.9031 245° Southwest 329 379 22,000 -1,800 Climbing Memphis Center
09:08AM 36.4714 -85.9906 237° Southwest 307 353 11,000 -5,520 Descending Memphis Center
09:09AM 36.4289 -86.0806 240° Southwest 302 348 11,000  Level Memphis Center
09:11AM 36.3469 -86.2492 239° Southwest 308 354 11,000 -720 Level Indianapolis Center
09:12AM 36.3333 -86.3667 262° West 293 337 9,100 -1,440 Descending Nashville TRACON
09:13AM 36.3500 -86.4667 282° West 287 330 8,000 -540 Descending Nashville TRACON
09:14AM 36.3633 -86.5661 279° West 286 329 8,000 -360 Level Memphis Center
09:15AM 36.3847 -86.6578 286° West 291 335 7,300 -1,260 Descending Memphis Center
09:16AM 36.4039 -86.7419 286° West 273 314 5,500 -1,680 Descending Memphis Center
09:17AM 36.4189 -86.8239 283° West 251 289 4,000 -1,260 Descending Memphis Center
09:18AM 36.3631 -86.8469 198° South 170 196 3,000 -780 Descending Memphis Center
09:19AM 36.3089 -86.8467 180° South 187 215 2,500 -540 Descending Memphis Center
09:20AM 36.2553 -86.8619 193° South 198 228 2,000 -720 Descending Memphis Center
09:21AM 36.2119 -86.8767 195° South 173 199 1,100 -900 Descending Memphis Center
09:23AM 36.1824 -86.8867 202° Southwest  Level Estimated
09:30AM 36.1824 -86.8867 202° Southwest  Level Estimated
09:31AM 36.1824 -86.8867 202° Southwest  Level Estimated
09:32AM 36.1824 -86.8867 202° Southwest  Level Estimated
09:33AM 36.1824 -86.8867 202° Southwest  Level Estimated
09:34AM 36.1824 -86.8867 202° Southwest  Level Estimated
09:35AM 36.1824 -86.8867 202° Southwest  Level Estimated
09:36AM 36.1824 -86.8867 202° Southwest  Level Estimated
09:37AM 36.1824 -86.8867 202° Southwest  Level Estimated
09:38AM 36.1824 -86.8867 202° Southwest  Level Estimated